sensor_id;sensor_type;location;lat;lon;timestamp;P1;durP1;ratioP1;P2;durP2;ratioP2
22543;SDS011;11438;52.044;8.716;2023-05-24T00:02:04;7.82;;;1.85;;
22543;SDS011;11438;52.044;8.716;2023-05-24T00:04:30;7.75;;;1.80;;
22543;SDS011;11438;52.044;8.716;2023-05-24T00:06:56;6.63;;;1.60;;
22543;SDS011;11438;52.044;8.716;2023-05-24T00:09:22;10.02;;;1.60;;
22543;SDS011;11438;52.044;8.716;2023-05-24T00:11:47;9.55;;;2.05;;
22543;SDS011;11438;52.044;8.716;2023-05-24T00:14:13;9.27;;;2.00;;
22543;SDS011;11438;52.044;8.716;2023-05-24T00:16:39;5.78;;;1.50;;
22543;SDS011;11438;52.044;8.716;2023-05-24T00:19:04;6.50;;;1.73;;
22543;SDS011;11438;52.044;8.716;2023-05-24T00:21:30;7.18;;;1.33;;
22543;SDS011;11438;52.044;8.716;2023-05-24T00:23:56;7.63;;;1.58;;
22543;SDS011;11438;52.044;8.716;2023-05-24T00:26:21;10.20;;;1.75;;
22543;SDS011;11438;52.044;8.716;2023-05-24T00:28:47;8.18;;;1.77;;
22543;SDS011;11438;52.044;8.716;2023-05-24T00:31:12;7.57;;;1.60;;
22543;SDS011;11438;52.044;8.716;2023-05-24T00:33:38;9.63;;;1.88;;
22543;SDS011;11438;52.044;8.716;2023-05-24T00:36:04;5.68;;;1.63;;
22543;SDS011;11438;52.044;8.716;2023-05-24T00:38:30;6.15;;;1.40;;
22543;SDS011;11438;52.044;8.716;2023-05-24T00:40:55;5.35;;;1.40;;
22543;SDS011;11438;52.044;8.716;2023-05-24T00:43:21;5.85;;;1.60;;
22543;SDS011;11438;52.044;8.716;2023-05-24T00:45:47;10.07;;;1.90;;
22543;SDS011;11438;52.044;8.716;2023-05-24T00:48:20;8.43;;;1.58;;
22543;SDS011;11438;52.044;8.716;2023-05-24T00:50:47;8.90;;;1.90;;
22543;SDS011;11438;52.044;8.716;2023-05-24T00:53:13;10.93;;;2.20;;
22543;SDS011;11438;52.044;8.716;2023-05-24T00:55:38;10.13;;;2.20;;
22543;SDS011;11438;52.044;8.716;2023-05-24T00:58:04;9.13;;;2.08;;
22543;SDS011;11438;52.044;8.716;2023-05-24T01:00:29;9.30;;;1.85;;
22543;SDS011;11438;52.044;8.716;2023-05-24T01:02:56;10.85;;;2.20;;
22543;SDS011;11438;52.044;8.716;2023-05-24T01:05:21;5.78;;;1.60;;
22543;SDS011;11438;52.044;8.716;2023-05-24T01:10:39;7.43;;;1.85;;
22543;SDS011;11438;52.044;8.716;2023-05-24T01:16:14;7.82;;;2.13;;
22543;SDS011;11438;52.044;8.716;2023-05-24T01:18:45;8.95;;;2.13;;
22543;SDS011;11438;52.044;8.716;2023-05-24T01:24:04;8.45;;;2.13;;
22543;SDS011;11438;52.044;8.716;2023-05-24T01:26:41;6.88;;;1.88;;
22543;SDS011;11438;52.044;8.716;2023-05-24T01:29:21;12.90;;;2.00;;
22543;SDS011;11438;52.044;8.716;2023-05-24T01:31:47;5.72;;;1.58;;
22543;SDS011;11438;52.044;8.716;2023-05-24T01:34:13;8.65;;;1.80;;
22543;SDS011;11438;52.044;8.716;2023-05-24T01:36:39;7.90;;;2.13;;
22543;SDS011;11438;52.044;8.716;2023-05-24T01:39:04;8.05;;;2.30;;
22543;SDS011;11438;52.044;8.716;2023-05-24T01:41:33;5.40;;;1.50;;
22543;SDS011;11438;52.044;8.716;2023-05-24T01:44:06;7.10;;;1.60;;
22543;SDS011;11438;52.044;8.716;2023-05-24T01:46:41;7.05;;;1.60;;
22543;SDS011;11438;52.044;8.716;2023-05-24T01:49:26;8.45;;;1.88;;
22543;SDS011;11438;52.044;8.716;2023-05-24T01:54:36;9.93;;;2.00;;
22543;SDS011;11438;52.044;8.716;2023-05-24T01:57:06;15.38;;;3.30;;
22543;SDS011;11438;52.044;8.716;2023-05-24T01:59:34;5.82;;;1.48;;
22543;SDS011;11438;52.044;8.716;2023-05-24T02:02:01;5.43;;;1.52;;
22543;SDS011;11438;52.044;8.716;2023-05-24T02:04:27;5.10;;;1.50;;
22543;SDS011;11438;52.044;8.716;2023-05-24T02:06:52;4.55;;;1.48;;
22543;SDS011;11438;52.044;8.716;2023-05-24T02:09:18;5.07;;;1.60;;
22543;SDS011;11438;52.044;8.716;2023-05-24T02:11:43;5.72;;;1.40;;
22543;SDS011;11438;52.044;8.716;2023-05-24T02:14:09;7.53;;;1.73;;
22543;SDS011;11438;52.044;8.716;2023-05-24T02:16:35;7.47;;;1.80;;
22543;SDS011;11438;52.044;8.716;2023-05-24T02:19:06;7.05;;;1.80;;
22543;SDS011;11438;52.044;8.716;2023-05-24T02:21:32;5.65;;;1.70;;
22543;SDS011;11438;52.044;8.716;2023-05-24T02:23:58;8.30;;;1.73;;
22543;SDS011;11438;52.044;8.716;2023-05-24T02:26:23;5.70;;;1.92;;
22543;SDS011;11438;52.044;8.716;2023-05-24T02:28:49;5.57;;;1.92;;
22543;SDS011;11438;52.044;8.716;2023-05-24T02:31:15;5.20;;;1.58;;
22543;SDS011;11438;52.044;8.716;2023-05-24T02:33:41;8.70;;;1.98;;
22543;SDS011;11438;52.044;8.716;2023-05-24T02:36:07;5.10;;;1.55;;
22543;SDS011;11438;52.044;8.716;2023-05-24T02:38:32;6.78;;;1.65;;
22543;SDS011;11438;52.044;8.716;2023-05-24T02:40:58;7.55;;;1.80;;
22543;SDS011;11438;52.044;8.716;2023-05-24T02:43:23;8.85;;;1.65;;
22543;SDS011;11438;52.044;8.716;2023-05-24T02:45:49;12.68;;;2.70;;
22543;SDS011;11438;52.044;8.716;2023-05-24T02:48:15;4.93;;;1.83;;
22543;SDS011;11438;52.044;8.716;2023-05-24T02:50:40;7.88;;;1.83;;
22543;SDS011;11438;52.044;8.716;2023-05-24T02:53:06;5.22;;;2.13;;
22543;SDS011;11438;52.044;8.716;2023-05-24T02:55:32;9.48;;;2.22;;
22543;SDS011;11438;52.044;8.716;2023-05-24T02:57:58;8.43;;;1.90;;
22543;SDS011;11438;52.044;8.716;2023-05-24T03:00:23;6.40;;;1.75;;
22543;SDS011;11438;52.044;8.716;2023-05-24T03:02:49;8.98;;;1.92;;
22543;SDS011;11438;52.044;8.716;2023-05-24T03:05:19;6.18;;;1.70;;
22543;SDS011;11438;52.044;8.716;2023-05-24T03:07:45;8.85;;;1.90;;
22543;SDS011;11438;52.044;8.716;2023-05-24T03:10:10;5.32;;;1.52;;
22543;SDS011;11438;52.044;8.716;2023-05-24T03:12:35;6.82;;;1.98;;
22543;SDS011;11438;52.044;8.716;2023-05-24T03:15:01;5.95;;;1.63;;
22543;SDS011;11438;52.044;8.716;2023-05-24T03:17:27;6.30;;;1.70;;
22543;SDS011;11438;52.044;8.716;2023-05-24T03:19:52;5.85;;;1.80;;
22543;SDS011;11438;52.044;8.716;2023-05-24T03:22:18;5.72;;;1.88;;
22543;SDS011;11438;52.044;8.716;2023-05-24T03:24:43;4.60;;;2.30;;
22543;SDS011;11438;52.044;8.716;2023-05-24T03:27:10;6.03;;;1.63;;
22543;SDS011;11438;52.044;8.716;2023-05-24T03:29:36;6.80;;;1.80;;
22543;SDS011;11438;52.044;8.716;2023-05-24T03:32:01;8.93;;;2.05;;
22543;SDS011;11438;52.044;8.716;2023-05-24T03:34:27;6.68;;;1.80;;
22543;SDS011;11438;52.044;8.716;2023-05-24T03:36:54;8.05;;;2.03;;
22543;SDS011;11438;52.044;8.716;2023-05-24T03:39:19;4.93;;;1.70;;
22543;SDS011;11438;52.044;8.716;2023-05-24T03:41:45;5.45;;;1.77;;
22543;SDS011;11438;52.044;8.716;2023-05-24T03:44:10;5.93;;;1.20;;
22543;SDS011;11438;52.044;8.716;2023-05-24T03:46:35;5.13;;;1.48;;
22543;SDS011;11438;52.044;8.716;2023-05-24T03:49:01;5.40;;;1.77;;
22543;SDS011;11438;52.044;8.716;2023-05-24T03:51:27;6.88;;;1.70;;
22543;SDS011;11438;52.044;8.716;2023-05-24T03:53:57;6.80;;;2.08;;
22543;SDS011;11438;52.044;8.716;2023-05-24T03:56:22;6.47;;;1.73;;
22543;SDS011;11438;52.044;8.716;2023-05-24T03:58:48;5.70;;;1.60;;
22543;SDS011;11438;52.044;8.716;2023-05-24T04:01:16;8.82;;;2.38;;
22543;SDS011;11438;52.044;8.716;2023-05-24T04:03:41;7.80;;;1.90;;
22543;SDS011;11438;52.044;8.716;2023-05-24T04:06:09;9.43;;;2.05;;
22543;SDS011;11438;52.044;8.716;2023-05-24T04:08:36;8.60;;;2.08;;
22543;SDS011;11438;52.044;8.716;2023-05-24T04:11:01;8.07;;;2.55;;
22543;SDS011;11438;52.044;8.716;2023-05-24T04:13:27;11.57;;;2.83;;
22543;SDS011;11438;52.044;8.716;2023-05-24T04:15:52;8.82;;;2.30;;
22543;SDS011;11438;52.044;8.716;2023-05-24T04:18:18;12.20;;;2.22;;
22543;SDS011;11438;52.044;8.716;2023-05-24T04:20:43;8.18;;;2.30;;
22543;SDS011;11438;52.044;8.716;2023-05-24T04:23:09;11.20;;;2.38;;
22543;SDS011;11438;52.044;8.716;2023-05-24T04:25:34;14.77;;;3.30;;
22543;SDS011;11438;52.044;8.716;2023-05-24T04:28:00;8.85;;;2.40;;
22543;SDS011;11438;52.044;8.716;2023-05-24T04:30:27;10.32;;;2.65;;
22543;SDS011;11438;52.044;8.716;2023-05-24T04:32:54;10.82;;;2.63;;
22543;SDS011;11438;52.044;8.716;2023-05-24T04:35:20;11.80;;;2.30;;
22543;SDS011;11438;52.044;8.716;2023-05-24T04:37:46;9.57;;;2.40;;
22543;SDS011;11438;52.044;8.716;2023-05-24T04:40:13;13.07;;;2.92;;
22543;SDS011;11438;52.044;8.716;2023-05-24T04:42:40;13.32;;;2.58;;
22543;SDS011;11438;52.044;8.716;2023-05-24T04:45:06;9.27;;;2.65;;
22543;SDS011;11438;52.044;8.716;2023-05-24T04:47:32;11.10;;;2.70;;
22543;SDS011;11438;52.044;8.716;2023-05-24T04:49:57;9.48;;;3.00;;
22543;SDS011;11438;52.044;8.716;2023-05-24T04:52:23;11.60;;;2.65;;
22543;SDS011;11438;52.044;8.716;2023-05-24T04:54:48;7.32;;;2.35;;
22543;SDS011;11438;52.044;8.716;2023-05-24T04:57:15;11.15;;;3.13;;
22543;SDS011;11438;52.044;8.716;2023-05-24T04:59:41;11.98;;;2.95;;
22543;SDS011;11438;52.044;8.716;2023-05-24T05:02:07;16.00;;;3.50;;
22543;SDS011;11438;52.044;8.716;2023-05-24T05:04:32;14.23;;;3.15;;
22543;SDS011;11438;52.044;8.716;2023-05-24T05:06:57;11.02;;;2.92;;
22543;SDS011;11438;52.044;8.716;2023-05-24T05:09:23;15.38;;;3.45;;
22543;SDS011;11438;52.044;8.716;2023-05-24T05:11:48;11.18;;;2.63;;
22543;SDS011;11438;52.044;8.716;2023-05-24T05:14:14;11.82;;;2.88;;
22543;SDS011;11438;52.044;8.716;2023-05-24T05:16:40;14.18;;;3.15;;
22543;SDS011;11438;52.044;8.716;2023-05-24T05:19:06;10.52;;;2.95;;
22543;SDS011;11438;52.044;8.716;2023-05-24T05:21:32;12.15;;;3.00;;
22543;SDS011;11438;52.044;8.716;2023-05-24T05:23:58;14.48;;;3.28;;
22543;SDS011;11438;52.044;8.716;2023-05-24T05:26:25;13.13;;;3.28;;
22543;SDS011;11438;52.044;8.716;2023-05-24T05:28:51;17.50;;;3.15;;
22543;SDS011;11438;52.044;8.716;2023-05-24T05:31:16;8.23;;;2.53;;
22543;SDS011;11438;52.044;8.716;2023-05-24T05:33:42;9.80;;;2.60;;
22543;SDS011;11438;52.044;8.716;2023-05-24T05:36:07;15.40;;;3.25;;
22543;SDS011;11438;52.044;8.716;2023-05-24T05:38:33;11.65;;;3.65;;
22543;SDS011;11438;52.044;8.716;2023-05-24T05:40:58;12.15;;;2.97;;
22543;SDS011;11438;52.044;8.716;2023-05-24T05:43:24;12.07;;;3.00;;
22543;SDS011;11438;52.044;8.716;2023-05-24T05:45:49;13.73;;;3.25;;
22543;SDS011;11438;52.044;8.716;2023-05-24T05:48:15;12.95;;;2.95;;
22543;SDS011;11438;52.044;8.716;2023-05-24T05:50:40;11.95;;;3.00;;
22543;SDS011;11438;52.044;8.716;2023-05-24T05:53:06;15.23;;;3.22;;
22543;SDS011;11438;52.044;8.716;2023-05-24T05:55:31;15.05;;;3.17;;
22543;SDS011;11438;52.044;8.716;2023-05-24T05:57:57;14.43;;;3.92;;
22543;SDS011;11438;52.044;8.716;2023-05-24T06:00:22;12.35;;;3.15;;
22543;SDS011;11438;52.044;8.716;2023-05-24T06:02:48;16.02;;;3.72;;
22543;SDS011;11438;52.044;8.716;2023-05-24T06:05:13;11.18;;;2.90;;
22543;SDS011;11438;52.044;8.716;2023-05-24T06:07:39;10.70;;;2.97;;
22543;SDS011;11438;52.044;8.716;2023-05-24T06:10:04;12.63;;;3.45;;
22543;SDS011;11438;52.044;8.716;2023-05-24T06:12:30;11.82;;;3.15;;
22543;SDS011;11438;52.044;8.716;2023-05-24T06:14:56;12.73;;;2.90;;
22543;SDS011;11438;52.044;8.716;2023-05-24T06:17:23;16.48;;;3.63;;
22543;SDS011;11438;52.044;8.716;2023-05-24T06:19:49;14.93;;;3.50;;
22543;SDS011;11438;52.044;8.716;2023-05-24T06:22:18;9.68;;;2.92;;
22543;SDS011;11438;52.044;8.716;2023-05-24T06:24:44;12.90;;;3.70;;
22543;SDS011;11438;52.044;8.716;2023-05-24T06:27:09;10.93;;;2.80;;
22543;SDS011;11438;52.044;8.716;2023-05-24T06:29:35;14.95;;;3.13;;
22543;SDS011;11438;52.044;8.716;2023-05-24T06:32:01;12.32;;;2.92;;
22543;SDS011;11438;52.044;8.716;2023-05-24T06:34:26;10.40;;;2.92;;
22543;SDS011;11438;52.044;8.716;2023-05-24T06:36:53;14.15;;;3.25;;
22543;SDS011;11438;52.044;8.716;2023-05-24T06:39:19;15.38;;;3.10;;
22543;SDS011;11438;52.044;8.716;2023-05-24T06:41:44;14.13;;;3.10;;
22543;SDS011;11438;52.044;8.716;2023-05-24T06:44:11;12.73;;;2.92;;
22543;SDS011;11438;52.044;8.716;2023-05-24T06:46:37;14.38;;;2.88;;
22543;SDS011;11438;52.044;8.716;2023-05-24T06:49:03;10.27;;;3.17;;
22543;SDS011;11438;52.044;8.716;2023-05-24T06:51:29;12.57;;;3.15;;
22543;SDS011;11438;52.044;8.716;2023-05-24T06:53:55;13.35;;;2.67;;
22543;SDS011;11438;52.044;8.716;2023-05-24T06:56:20;13.98;;;3.33;;
22543;SDS011;11438;52.044;8.716;2023-05-24T06:58:47;15.00;;;3.33;;
22543;SDS011;11438;52.044;8.716;2023-05-24T07:01:12;15.52;;;3.67;;
22543;SDS011;11438;52.044;8.716;2023-05-24T07:03:38;13.65;;;3.55;;
22543;SDS011;11438;52.044;8.716;2023-05-24T07:06:03;18.55;;;3.78;;
22543;SDS011;11438;52.044;8.716;2023-05-24T07:08:29;13.52;;;3.00;;
22543;SDS011;11438;52.044;8.716;2023-05-24T07:10:55;13.50;;;3.10;;
22543;SDS011;11438;52.044;8.716;2023-05-24T07:13:20;12.48;;;2.92;;
22543;SDS011;11438;52.044;8.716;2023-05-24T07:15:46;14.55;;;3.15;;
22543;SDS011;11438;52.044;8.716;2023-05-24T07:18:12;13.80;;;3.60;;
22543;SDS011;11438;52.044;8.716;2023-05-24T07:20:38;12.75;;;3.50;;
22543;SDS011;11438;52.044;8.716;2023-05-24T07:23:04;12.70;;;3.28;;
22543;SDS011;11438;52.044;8.716;2023-05-24T07:25:31;15.32;;;3.50;;
22543;SDS011;11438;52.044;8.716;2023-05-24T07:27:57;13.23;;;3.15;;
22543;SDS011;11438;52.044;8.716;2023-05-24T07:30:23;13.48;;;3.55;;
22543;SDS011;11438;52.044;8.716;2023-05-24T07:32:48;10.70;;;3.40;;
22543;SDS011;11438;52.044;8.716;2023-05-24T07:35:14;14.05;;;3.25;;
22543;SDS011;11438;52.044;8.716;2023-05-24T07:37:40;15.10;;;3.35;;
22543;SDS011;11438;52.044;8.716;2023-05-24T07:40:06;14.57;;;3.50;;
22543;SDS011;11438;52.044;8.716;2023-05-24T07:42:35;13.40;;;3.35;;
22543;SDS011;11438;52.044;8.716;2023-05-24T07:45:01;13.95;;;3.10;;
22543;SDS011;11438;52.044;8.716;2023-05-24T07:47:27;9.60;;;2.78;;
22543;SDS011;11438;52.044;8.716;2023-05-24T07:49:52;15.75;;;4.20;;
22543;SDS011;11438;52.044;8.716;2023-05-24T07:52:18;11.98;;;3.25;;
22543;SDS011;11438;52.044;8.716;2023-05-24T07:54:44;13.50;;;3.08;;
22543;SDS011;11438;52.044;8.716;2023-05-24T07:57:10;12.13;;;3.13;;
22543;SDS011;11438;52.044;8.716;2023-05-24T07:59:36;11.38;;;3.15;;
22543;SDS011;11438;52.044;8.716;2023-05-24T08:02:01;16.02;;;3.38;;
22543;SDS011;11438;52.044;8.716;2023-05-24T08:04:29;16.00;;;3.40;;
22543;SDS011;11438;52.044;8.716;2023-05-24T08:06:56;15.38;;;3.22;;
22543;SDS011;11438;52.044;8.716;2023-05-24T08:09:23;14.77;;;3.78;;
22543;SDS011;11438;52.044;8.716;2023-05-24T08:11:48;12.18;;;3.28;;
22543;SDS011;11438;52.044;8.716;2023-05-24T08:14:14;15.15;;;3.35;;
22543;SDS011;11438;52.044;8.716;2023-05-24T08:16:40;14.75;;;3.38;;
22543;SDS011;11438;52.044;8.716;2023-05-24T08:19:05;9.85;;;3.15;;
22543;SDS011;11438;52.044;8.716;2023-05-24T08:21:31;11.32;;;3.05;;
22543;SDS011;11438;52.044;8.716;2023-05-24T08:23:57;11.00;;;2.85;;
22543;SDS011;11438;52.044;8.716;2023-05-24T08:26:24;12.57;;;3.15;;
22543;SDS011;11438;52.044;8.716;2023-05-24T08:28:50;12.00;;;2.80;;
22543;SDS011;11438;52.044;8.716;2023-05-24T08:31:16;15.35;;;3.40;;
22543;SDS011;11438;52.044;8.716;2023-05-24T08:33:41;15.18;;;3.40;;
22543;SDS011;11438;52.044;8.716;2023-05-24T08:36:07;12.70;;;3.15;;
22543;SDS011;11438;52.044;8.716;2023-05-24T08:38:33;14.50;;;3.50;;
22543;SDS011;11438;52.044;8.716;2023-05-24T08:40:58;13.48;;;3.55;;
22543;SDS011;11438;52.044;8.716;2023-05-24T08:43:24;12.50;;;2.92;;
22543;SDS011;11438;52.044;8.716;2023-05-24T08:45:53;11.07;;;3.03;;
22543;SDS011;11438;52.044;8.716;2023-05-24T08:48:21;17.20;;;3.17;;
22543;SDS011;11438;52.044;8.716;2023-05-24T08:50:49;11.15;;;2.97;;
22543;SDS011;11438;52.044;8.716;2023-05-24T08:53:15;14.50;;;3.60;;
22543;SDS011;11438;52.044;8.716;2023-05-24T08:55:42;12.10;;;3.25;;
22543;SDS011;11438;52.044;8.716;2023-05-24T08:58:08;13.32;;;3.38;;
22543;SDS011;11438;52.044;8.716;2023-05-24T09:00:35;13.13;;;3.03;;
22543;SDS011;11438;52.044;8.716;2023-05-24T09:03:00;15.43;;;3.15;;
22543;SDS011;11438;52.044;8.716;2023-05-24T09:05:26;12.43;;;2.83;;
22543;SDS011;11438;52.044;8.716;2023-05-24T09:07:54;12.68;;;2.95;;
22543;SDS011;11438;52.044;8.716;2023-05-24T09:10:20;10.65;;;2.60;;
22543;SDS011;11438;52.044;8.716;2023-05-24T09:12:50;17.15;;;3.15;;
22543;SDS011;11438;52.044;8.716;2023-05-24T09:15:21;13.38;;;3.00;;
22543;SDS011;11438;52.044;8.716;2023-05-24T09:17:47;14.55;;;3.25;;
22543;SDS011;11438;52.044;8.716;2023-05-24T09:20:12;18.10;;;3.50;;
22543;SDS011;11438;52.044;8.716;2023-05-24T09:22:39;14.82;;;3.45;;
22543;SDS011;11438;52.044;8.716;2023-05-24T09:25:06;14.40;;;3.00;;
22543;SDS011;11438;52.044;8.716;2023-05-24T09:27:33;8.82;;;2.88;;
22543;SDS011;11438;52.044;8.716;2023-05-24T09:29:59;14.43;;;3.10;;
22543;SDS011;11438;52.044;8.716;2023-05-24T09:32:27;10.10;;;2.72;;
22543;SDS011;11438;52.044;8.716;2023-05-24T09:34:54;15.98;;;3.50;;
22543;SDS011;11438;52.044;8.716;2023-05-24T09:37:21;13.65;;;2.72;;
22543;SDS011;11438;52.044;8.716;2023-05-24T09:39:50;12.15;;;3.00;;
22543;SDS011;11438;52.044;8.716;2023-05-24T09:42:16;9.27;;;2.85;;
22543;SDS011;11438;52.044;8.716;2023-05-24T09:44:45;13.73;;;2.80;;
22543;SDS011;11438;52.044;8.716;2023-05-24T09:47:26;13.20;;;3.28;;
22543;SDS011;11438;52.044;8.716;2023-05-24T09:49:55;13.32;;;3.08;;
22543;SDS011;11438;52.044;8.716;2023-05-24T09:52:21;10.60;;;3.00;;
22543;SDS011;11438;52.044;8.716;2023-05-24T09:54:47;11.98;;;2.80;;
22543;SDS011;11438;52.044;8.716;2023-05-24T09:57:14;13.98;;;2.78;;
22543;SDS011;11438;52.044;8.716;2023-05-24T09:59:41;16.63;;;3.28;;
22543;SDS011;11438;52.044;8.716;2023-05-24T10:02:08;15.65;;;3.08;;
22543;SDS011;11438;52.044;8.716;2023-05-24T10:04:35;14.50;;;3.10;;
22543;SDS011;11438;52.044;8.716;2023-05-24T10:07:01;12.07;;;2.85;;
22543;SDS011;11438;52.044;8.716;2023-05-24T10:09:30;15.10;;;3.10;;
22543;SDS011;11438;52.044;8.716;2023-05-24T10:12:06;13.70;;;3.30;;
22543;SDS011;11438;52.044;8.716;2023-05-24T10:14:36;11.43;;;2.63;;
22543;SDS011;11438;52.044;8.716;2023-05-24T10:17:03;9.82;;;2.75;;
22543;SDS011;11438;52.044;8.716;2023-05-24T10:19:29;13.32;;;2.92;;
22543;SDS011;11438;52.044;8.716;2023-05-24T10:21:59;14.48;;;3.35;;
22543;SDS011;11438;52.044;8.716;2023-05-24T10:24:31;13.40;;;3.30;;
22543;SDS011;11438;52.044;8.716;2023-05-24T10:27:02;15.70;;;3.20;;
22543;SDS011;11438;52.044;8.716;2023-05-24T10:29:49;16.58;;;3.63;;
22543;SDS011;11438;52.044;8.716;2023-05-24T10:32:23;14.18;;;3.35;;
22543;SDS011;11438;52.044;8.716;2023-05-24T10:34:55;10.32;;;3.13;;
22543;SDS011;11438;52.044;8.716;2023-05-24T10:37:22;12.13;;;3.00;;
22543;SDS011;11438;52.044;8.716;2023-05-24T10:39:48;13.13;;;3.40;;
22543;SDS011;11438;52.044;8.716;2023-05-24T10:42:14;10.88;;;3.28;;
22543;SDS011;11438;52.044;8.716;2023-05-24T10:44:41;10.02;;;2.80;;
22543;SDS011;11438;52.044;8.716;2023-05-24T10:47:11;12.85;;;3.72;;
22543;SDS011;11438;52.044;8.716;2023-05-24T10:49:50;13.05;;;2.72;;
22543;SDS011;11438;52.044;8.716;2023-05-24T10:52:17;8.38;;;2.72;;
22543;SDS011;11438;52.044;8.716;2023-05-24T10:57:34;9.68;;;3.08;;
22543;SDS011;11438;52.044;8.716;2023-05-24T11:02:58;10.50;;;3.40;;
22543;SDS011;11438;52.044;8.716;2023-05-24T11:05:34;12.20;;;3.38;;
22543;SDS011;11438;52.044;8.716;2023-05-24T11:08:13;14.85;;;3.17;;
22543;SDS011;11438;52.044;8.716;2023-05-24T11:10:38;14.30;;;3.25;;
22543;SDS011;11438;52.044;8.716;2023-05-24T11:13:08;14.52;;;3.50;;
22543;SDS011;11438;52.044;8.716;2023-05-24T11:15:34;14.65;;;3.40;;
22543;SDS011;11438;52.044;8.716;2023-05-24T11:20:38;10.05;;;2.90;;
22543;SDS011;11438;52.044;8.716;2023-05-24T11:23:12;15.50;;;3.83;;
22543;SDS011;11438;52.044;8.716;2023-05-24T11:25:38;13.20;;;3.38;;
22543;SDS011;11438;52.044;8.716;2023-05-24T11:28:10;12.55;;;3.13;;
22543;SDS011;11438;52.044;8.716;2023-05-24T11:30:43;10.25;;;2.60;;
22543;SDS011;11438;52.044;8.716;2023-05-24T11:33:13;12.93;;;3.08;;
22543;SDS011;11438;52.044;8.716;2023-05-24T11:35:43;12.40;;;3.05;;
22543;SDS011;11438;52.044;8.716;2023-05-24T11:38:13;11.88;;;2.97;;
22543;SDS011;11438;52.044;8.716;2023-05-24T11:40:43;10.60;;;3.33;;
22543;SDS011;11438;52.044;8.716;2023-05-24T11:43:19;12.75;;;3.28;;
22543;SDS011;11438;52.044;8.716;2023-05-24T11:45:47;8.30;;;2.63;;
22543;SDS011;11438;52.044;8.716;2023-05-24T11:48:14;13.60;;;3.28;;
22543;SDS011;11438;52.044;8.716;2023-05-24T11:50:41;14.63;;;3.30;;
22543;SDS011;11438;52.044;8.716;2023-05-24T11:53:11;12.48;;;3.38;;
22543;SDS011;11438;52.044;8.716;2023-05-24T11:55:37;12.73;;;3.33;;
22543;SDS011;11438;52.044;8.716;2023-05-24T11:58:05;14.45;;;3.85;;
22543;SDS011;11438;52.044;8.716;2023-05-24T12:00:35;10.60;;;3.15;;
22543;SDS011;11438;52.044;8.716;2023-05-24T12:03:02;10.18;;;3.10;;
22543;SDS011;11438;52.044;8.716;2023-05-24T12:05:31;14.75;;;3.67;;
22543;SDS011;11438;52.044;8.716;2023-05-24T12:08:01;9.95;;;3.50;;
22543;SDS011;11438;52.044;8.716;2023-05-24T12:10:29;12.18;;;3.13;;
22543;SDS011;11438;52.044;8.716;2023-05-24T12:12:55;13.88;;;4.15;;
22543;SDS011;11438;52.044;8.716;2023-05-24T12:15:21;18.80;;;3.88;;
22543;SDS011;11438;52.044;8.716;2023-05-24T12:17:47;12.50;;;3.55;;
22543;SDS011;11438;52.044;8.716;2023-05-24T12:20:16;14.60;;;3.60;;
22543;SDS011;11438;52.044;8.716;2023-05-24T12:22:54;12.35;;;3.70;;
22543;SDS011;11438;52.044;8.716;2023-05-24T12:25:20;11.93;;;3.88;;
22543;SDS011;11438;52.044;8.716;2023-05-24T12:27:51;13.77;;;3.90;;
22543;SDS011;11438;52.044;8.716;2023-05-24T12:30:22;15.68;;;3.80;;
22543;SDS011;11438;52.044;8.716;2023-05-24T12:32:49;12.10;;;3.50;;
22543;SDS011;11438;52.044;8.716;2023-05-24T12:35:18;13.85;;;4.65;;
22543;SDS011;11438;52.044;8.716;2023-05-24T12:37:44;11.90;;;3.50;;
22543;SDS011;11438;52.044;8.716;2023-05-24T12:40:14;13.32;;;3.22;;
22543;SDS011;11438;52.044;8.716;2023-05-24T12:42:42;13.93;;;3.50;;
22543;SDS011;11438;52.044;8.716;2023-05-24T12:45:09;9.60;;;3.25;;
22543;SDS011;11438;52.044;8.716;2023-05-24T12:47:35;13.07;;;3.50;;
22543;SDS011;11438;52.044;8.716;2023-05-24T12:50:01;13.48;;;3.28;;
22543;SDS011;11438;52.044;8.716;2023-05-24T12:52:26;14.95;;;3.88;;
22543;SDS011;11438;52.044;8.716;2023-05-24T12:54:52;14.00;;;4.10;;
22543;SDS011;11438;52.044;8.716;2023-05-24T12:57:17;12.10;;;3.63;;
22543;SDS011;11438;52.044;8.716;2023-05-24T12:59:43;12.85;;;3.63;;
22543;SDS011;11438;52.044;8.716;2023-05-24T13:02:08;12.57;;;3.72;;
22543;SDS011;11438;52.044;8.716;2023-05-24T13:04:34;15.45;;;3.78;;
22543;SDS011;11438;52.044;8.716;2023-05-24T13:07:00;14.95;;;3.85;;
22543;SDS011;11438;52.044;8.716;2023-05-24T13:09:26;10.82;;;3.80;;
22543;SDS011;11438;52.044;8.716;2023-05-24T13:11:53;12.38;;;3.63;;
22543;SDS011;11438;52.044;8.716;2023-05-24T13:14:19;13.30;;;3.83;;
22543;SDS011;11438;52.044;8.716;2023-05-24T13:16:45;15.48;;;3.40;;
22543;SDS011;11438;52.044;8.716;2023-05-24T13:19:10;12.77;;;3.53;;
22543;SDS011;11438;52.044;8.716;2023-05-24T13:21:36;11.85;;;3.45;;
22543;SDS011;11438;52.044;8.716;2023-05-24T13:24:02;12.25;;;3.35;;
22543;SDS011;11438;52.044;8.716;2023-05-24T13:26:30;12.40;;;3.55;;
22543;SDS011;11438;52.044;8.716;2023-05-24T13:29:00;15.00;;;3.15;;
22543;SDS011;11438;52.044;8.716;2023-05-24T13:31:27;7.50;;;2.40;;
22543;SDS011;11438;52.044;8.716;2023-05-24T13:33:53;13.23;;;2.97;;
22543;SDS011;11438;52.044;8.716;2023-05-24T13:36:18;8.82;;;3.05;;
22543;SDS011;11438;52.044;8.716;2023-05-24T13:38:44;15.55;;;3.40;;
22543;SDS011;11438;52.044;8.716;2023-05-24T13:41:09;10.70;;;3.17;;
22543;SDS011;11438;52.044;8.716;2023-05-24T13:43:35;13.07;;;3.58;;
22543;SDS011;11438;52.044;8.716;2023-05-24T13:46:00;12.15;;;3.38;;
22543;SDS011;11438;52.044;8.716;2023-05-24T13:48:25;16.20;;;3.40;;
22543;SDS011;11438;52.044;8.716;2023-05-24T13:50:52;16.52;;;4.00;;
22543;SDS011;11438;52.044;8.716;2023-05-24T13:53:17;11.15;;;3.47;;
22543;SDS011;11438;52.044;8.716;2023-05-24T13:55:43;14.20;;;3.50;;
22543;SDS011;11438;52.044;8.716;2023-05-24T13:58:09;12.13;;;3.70;;
22543;SDS011;11438;52.044;8.716;2023-05-24T14:00:34;12.90;;;3.42;;
22543;SDS011;11438;52.044;8.716;2023-05-24T14:03:00;12.95;;;3.50;;
22543;SDS011;11438;52.044;8.716;2023-05-24T14:05:26;10.82;;;3.00;;
22543;SDS011;11438;52.044;8.716;2023-05-24T14:07:55;15.57;;;3.15;;
22543;SDS011;11438;52.044;8.716;2023-05-24T14:10:21;8.18;;;2.88;;
22543;SDS011;11438;52.044;8.716;2023-05-24T14:12:47;10.73;;;3.30;;
22543;SDS011;11438;52.044;8.716;2023-05-24T14:15:13;19.80;;;3.78;;
22543;SDS011;11438;52.044;8.716;2023-05-24T14:17:38;9.73;;;3.53;;
22543;SDS011;11438;52.044;8.716;2023-05-24T14:20:05;12.18;;;3.25;;
22543;SDS011;11438;52.044;8.716;2023-05-24T14:22:31;11.88;;;3.65;;
22543;SDS011;11438;52.044;8.716;2023-05-24T14:24:56;10.65;;;3.58;;
22543;SDS011;11438;52.044;8.716;2023-05-24T14:27:22;10.57;;;3.63;;
22543;SDS011;11438;52.044;8.716;2023-05-24T14:29:47;10.68;;;3.65;;
22543;SDS011;11438;52.044;8.716;2023-05-24T14:32:13;14.32;;;3.65;;
22543;SDS011;11438;52.044;8.716;2023-05-24T14:34:40;11.93;;;3.25;;
22543;SDS011;11438;52.044;8.716;2023-05-24T14:37:06;14.32;;;3.50;;
22543;SDS011;11438;52.044;8.716;2023-05-24T14:39:31;18.20;;;3.80;;
22543;SDS011;11438;52.044;8.716;2023-05-24T14:41:57;13.55;;;3.38;;
22543;SDS011;11438;52.044;8.716;2023-05-24T14:44:22;12.18;;;3.95;;
22543;SDS011;11438;52.044;8.716;2023-05-24T14:46:48;13.25;;;3.28;;
22543;SDS011;11438;52.044;8.716;2023-05-24T14:49:13;11.05;;;3.35;;
22543;SDS011;11438;52.044;8.716;2023-05-24T14:51:39;16.67;;;3.58;;
22543;SDS011;11438;52.044;8.716;2023-05-24T14:54:04;12.90;;;3.40;;
22543;SDS011;11438;52.044;8.716;2023-05-24T14:56:30;10.40;;;3.10;;